Archival Weather

Chicago O'Hare International

Chicago, Illinois (KORD)

Report from: Wednesday, November 23, 2022 7:51 AM CST
Current time: Monday, July 22, 2024 6:40 AM CDT

Current weather – Weather history – Daily summaries
Weather forecast

Temperature2.8°C (37.0°F)
Wind chill1.4°C (34.5°F)
Dew point-1.7°C (28.9°F)
Winds 3 kts (1.5 m/s, 3.5 mph) South-Southwest (200°)
Visibility10 mi. (16.1 km)
Clouds Few clouds 20,000 ft. (6,096 m)
Altimeter30.15 in.Hg (1021 mB)
Relative humidity72 %
Density altitude-1,682 ft. (-513 m)
Sea-level pressure102.2 kPa (1022 mB, 30.17 in.Hg)
Remarks Automated weather observing station with precipitation discriminator
Flight conditions Visual Meteorological Conditions
Raw dataKORD 231351Z 20003KT 10SM FEW200 03/M02 A3015 RMK AO2 SLP216 T00281017
An error has occurred. This application may no longer respond until reloaded. Reload 🗙